createdAt,value
2023-02-16T00:01:35.165Z,2.53
2023-02-16T00:04:02.164Z,2.54
2023-02-16T00:06:29.521Z,2.56
2023-02-16T00:08:57.059Z,2.62
2023-02-16T00:11:53.188Z,2.63
2023-02-16T00:14:23.464Z,2.58
2023-02-16T00:16:50.636Z,2.56
2023-02-16T00:19:23.023Z,2.56
2023-02-16T00:21:50.959Z,2.56
2023-02-16T00:24:17.597Z,2.58
2023-02-16T00:26:45.806Z,2.58
2023-02-16T00:29:17.554Z,2.56
2023-02-16T00:31:44.144Z,2.52
2023-02-16T00:34:33.126Z,2.54
2023-02-16T00:37:02.950Z,2.54
2023-02-16T00:39:29.522Z,2.53
2023-02-16T00:41:58.571Z,2.53
2023-02-16T00:44:42.184Z,2.52
2023-02-16T00:47:22.067Z,2.51
2023-02-16T00:49:51.155Z,2.52
2023-02-16T00:52:30.233Z,2.51
2023-02-16T00:54:57.873Z,2.48
2023-02-16T00:57:25.232Z,2.47
2023-02-16T00:59:58.399Z,2.47
2023-02-16T01:02:24.932Z,2.47
2023-02-16T01:04:51.496Z,2.48
2023-02-16T01:07:37.435Z,2.48
2023-02-16T01:10:24.734Z,2.46
2023-02-16T01:12:51.253Z,2.44
2023-02-16T01:15:19.132Z,2.45
2023-02-16T01:17:45.637Z,2.46
2023-02-16T01:20:20.872Z,2.47
2023-02-16T01:22:47.641Z,2.41
2023-02-16T01:25:14.785Z,2.37
2023-02-16T01:27:42.060Z,2.36
2023-02-16T01:30:15.054Z,2.36
2023-02-16T01:32:43.455Z,2.34
2023-02-16T01:35:10.421Z,2.36
2023-02-16T01:37:36.955Z,2.28
2023-02-16T01:40:04.051Z,2.36
2023-02-16T01:42:49.720Z,2.39
2023-02-16T01:45:20.188Z,2.39
2023-02-16T01:47:53.366Z,2.43
2023-02-16T01:50:23.487Z,2.44
2023-02-16T01:52:55.882Z,2.47
2023-02-16T01:55:26.086Z,2.52
2023-02-16T01:57:57.817Z,2.58
2023-02-16T02:00:54.740Z,2.59
2023-02-16T02:03:43.772Z,2.64
2023-02-16T02:06:12.670Z,2.63
2023-02-16T02:09:08.798Z,2.66
2023-02-16T02:11:41.088Z,2.68
2023-02-16T02:14:25.279Z,2.72
2023-02-16T02:17:01.701Z,2.74
2023-02-16T02:19:32.645Z,2.73
2023-02-16T02:22:43.428Z,2.75
2023-02-16T02:25:45.167Z,2.74
2023-02-16T02:28:19.094Z,2.74
2023-02-16T02:30:51.111Z,2.75
2023-02-16T02:33:30.126Z,2.78
2023-02-16T02:36:16.268Z,2.79
2023-02-16T02:39:01.724Z,2.80
2023-02-16T02:42:05.641Z,2.80
2023-02-16T02:44:48.271Z,2.73
2023-02-16T02:47:14.871Z,2.69
2023-02-16T02:49:54.690Z,2.68
2023-02-16T02:52:22.344Z,2.69
2023-02-16T02:55:08.078Z,2.71
2023-02-16T02:58:00.236Z,2.70
2023-02-16T03:00:43.745Z,2.73
2023-02-16T03:03:19.356Z,2.74
2023-02-16T03:05:50.340Z,2.76
2023-02-16T03:08:17.658Z,2.79
2023-02-16T03:11:11.570Z,2.77
2023-02-16T03:13:42.131Z,2.79
2023-02-16T03:16:13.868Z,2.85
2023-02-16T03:19:00.082Z,2.84
2023-02-16T03:21:46.362Z,2.87
2023-02-16T03:24:35.642Z,2.83
2023-02-16T03:27:21.572Z,2.87
2023-02-16T03:29:50.294Z,2.84
2023-02-16T03:32:17.182Z,2.87
2023-02-16T03:34:43.854Z,2.91
2023-02-16T03:37:10.656Z,2.94
2023-02-16T03:39:57.190Z,2.95
2023-02-16T03:42:24.369Z,2.94
2023-02-16T03:44:51.681Z,2.92
2023-02-16T03:47:18.285Z,2.92
2023-02-16T03:49:44.869Z,2.93
2023-02-16T03:52:12.338Z,2.94
2023-02-16T03:54:38.929Z,2.94
2023-02-16T03:57:05.449Z,2.84
2023-02-16T03:59:32.034Z,2.86
2023-02-16T04:01:59.385Z,2.85
2023-02-16T04:04:26.014Z,2.87
2023-02-16T04:06:52.491Z,2.89
2023-02-16T04:09:19.058Z,2.90
2023-02-16T04:12:04.109Z,2.92
2023-02-16T04:14:30.596Z,2.94
2023-02-16T04:16:57.114Z,2.90
2023-02-16T04:19:24.773Z,2.87
2023-02-16T04:21:53.044Z,2.90
2023-02-16T04:24:19.753Z,2.90
2023-02-16T04:26:46.228Z,2.92
2023-02-16T04:29:12.706Z,2.94
2023-02-16T04:31:39.382Z,2.96
2023-02-16T04:34:06.230Z,2.94
2023-02-16T04:36:34.313Z,2.97
2023-02-16T04:39:00.944Z,2.92
2023-02-16T04:41:27.508Z,2.93
2023-02-16T04:43:54.049Z,2.85
2023-02-16T04:46:20.617Z,2.81
2023-02-16T04:48:47.249Z,2.84
2023-02-16T04:51:13.730Z,2.80
2023-02-16T04:53:40.260Z,2.79
2023-02-16T04:56:10.755Z,2.77
2023-02-16T04:58:37.314Z,2.78
2023-02-16T05:01:04.249Z,2.68
2023-02-16T05:03:31.319Z,2.73
2023-02-16T05:05:57.828Z,2.74
2023-02-16T05:08:24.322Z,2.76
2023-02-16T05:11:10.790Z,2.74
2023-02-16T05:13:55.971Z,2.75
2023-02-16T05:16:23.227Z,2.73
2023-02-16T05:18:49.721Z,2.72
2023-02-16T05:21:31.349Z,2.72
2023-02-16T05:24:06.246Z,2.69
2023-02-16T05:26:33.790Z,2.64
2023-02-16T05:29:01.156Z,2.63
2023-02-16T05:31:28.552Z,2.61
2023-02-16T05:33:55.615Z,2.58
2023-02-16T05:36:22.717Z,2.54
2023-02-16T05:38:49.310Z,2.49
2023-02-16T05:41:23.516Z,2.49
2023-02-16T05:43:58.530Z,2.44
2023-02-16T05:46:26.504Z,2.49
2023-02-16T05:48:54.059Z,2.50
2023-02-16T05:51:21.342Z,2.50
2023-02-16T05:53:48.142Z,2.52
2023-02-16T05:56:14.709Z,2.49
2023-02-16T05:58:41.204Z,2.47
2023-02-16T06:01:07.790Z,2.48
2023-02-16T06:03:35.965Z,2.48
2023-02-16T06:06:04.002Z,2.48
2023-02-16T06:08:31.277Z,2.49
2023-02-16T06:10:58.039Z,2.46
2023-02-16T06:13:24.851Z,2.42
2023-02-16T06:15:53.292Z,2.44
2023-02-16T06:18:19.855Z,2.44
2023-02-16T06:20:46.407Z,2.43
2023-02-16T06:23:13.690Z,2.41
2023-02-16T06:25:50.119Z,2.41
2023-02-16T06:28:16.631Z,2.40
2023-02-16T06:30:43.157Z,2.40
2023-02-16T06:33:09.759Z,2.40
2023-02-16T06:35:36.658Z,2.39
2023-02-16T06:38:03.283Z,2.39
2023-02-16T06:40:29.830Z,2.42
2023-02-16T06:42:56.346Z,2.43
2023-02-16T06:45:22.928Z,2.46
2023-02-16T06:47:49.947Z,2.50
2023-02-16T06:50:17.682Z,2.52
2023-02-16T06:52:44.304Z,2.53
2023-02-16T06:55:11.037Z,2.58
2023-02-16T06:57:37.996Z,2.62
2023-02-16T07:00:07.703Z,2.67
2023-02-16T07:02:35.820Z,2.76
2023-02-16T07:05:03.483Z,2.82
2023-02-16T07:07:34.158Z,2.92
2023-02-16T07:10:02.769Z,3.01
2023-02-16T07:12:29.490Z,3.10
2023-02-16T07:14:56.309Z,3.16
2023-02-16T07:17:22.829Z,3.15
2023-02-16T07:19:49.356Z,3.32
2023-02-16T07:22:16.714Z,3.38
2023-02-16T07:24:43.525Z,3.59
2023-02-16T07:27:10.078Z,3.84
2023-02-16T07:29:36.612Z,4.06
2023-02-16T07:32:03.731Z,4.19
2023-02-16T07:34:30.702Z,4.32
2023-02-16T07:36:57.466Z,4.49
2023-02-16T07:39:24.204Z,4.57
2023-02-16T07:41:53.043Z,4.63
2023-02-16T07:44:19.593Z,4.55
2023-02-16T07:46:46.109Z,4.75
2023-02-16T07:49:12.645Z,4.92
2023-02-16T07:51:40.593Z,5.03
2023-02-16T07:54:07.557Z,5.05
2023-02-16T07:56:35.440Z,5.25
2023-02-16T07:59:02.945Z,5.34
2023-02-16T08:01:30.554Z,5.59
2023-02-16T08:03:57.555Z,5.80
2023-02-16T08:06:24.572Z,6.03
2023-02-16T08:08:51.392Z,6.27
2023-02-16T08:11:23.473Z,6.40
2023-02-16T08:13:50.274Z,6.51
2023-02-16T08:16:22.802Z,6.56
2023-02-16T08:18:50.855Z,6.53
2023-02-16T08:21:20.510Z,6.70
2023-02-16T08:23:52.962Z,6.79
2023-02-16T08:26:20.707Z,6.88
2023-02-16T08:28:50.017Z,7.01
2023-02-16T08:31:19.442Z,7.18
2023-02-16T08:33:47.744Z,7.32
2023-02-16T08:36:26.501Z,7.48
2023-02-16T08:38:53.766Z,7.70
2023-02-16T08:41:23.478Z,8.01
2023-02-16T08:43:52.585Z,8.31
2023-02-16T08:46:19.284Z,8.50
2023-02-16T08:48:46.003Z,8.59
2023-02-16T08:51:17.893Z,8.77
2023-02-16T08:53:46.712Z,8.98
2023-02-16T08:56:14.647Z,9.16
2023-02-16T08:58:41.454Z,9.29
2023-02-16T09:01:10.513Z,9.41
2023-02-16T09:03:38.608Z,9.65
2023-02-16T09:06:06.208Z,9.90
2023-02-16T09:08:33.567Z,10.09
2023-02-16T09:11:05.166Z,10.15
2023-02-16T09:13:38.058Z,10.40
2023-02-16T09:16:06.492Z,10.55
2023-02-16T09:18:33.522Z,10.71
2023-02-16T09:21:05.367Z,10.92
2023-02-16T09:23:33.128Z,11.06
2023-02-16T09:26:02.826Z,11.18
2023-02-16T09:28:30.800Z,11.31
2023-02-16T09:30:57.568Z,11.41
2023-02-16T09:33:24.691Z,11.63
2023-02-16T09:35:51.589Z,11.85
2023-02-16T09:38:18.681Z,12.01
2023-02-16T09:40:45.228Z,12.16
2023-02-16T09:43:45.539Z,12.34
2023-02-16T09:46:13.987Z,12.59
2023-02-16T09:48:43.430Z,12.58
2023-02-16T09:51:15.728Z,12.75
2023-02-16T09:53:43.376Z,12.96
2023-02-16T09:56:38.124Z,13.13
2023-02-16T09:59:11.670Z,13.21
2023-02-16T10:01:48.386Z,13.48
2023-02-16T10:04:47.483Z,13.72
2023-02-16T10:07:23.731Z,13.89
2023-02-16T10:09:53.535Z,14.08
2023-02-16T10:12:33.155Z,14.24
2023-02-16T10:15:16.417Z,14.43
2023-02-16T10:17:50.127Z,14.42
2023-02-16T10:20:32.734Z,14.43
2023-02-16T10:23:08.670Z,14.40
2023-02-16T10:25:46.937Z,14.42
2023-02-16T10:28:22.469Z,14.37
2023-02-16T10:30:57.871Z,14.35
2023-02-16T10:33:43.819Z,14.38
2023-02-16T10:36:27.881Z,14.37
2023-02-16T10:39:14.043Z,14.17
2023-02-16T10:41:44.725Z,14.31
2023-02-16T10:44:24.155Z,14.45
2023-02-16T10:47:04.168Z,14.54
2023-02-16T10:49:32.395Z,14.60
2023-02-16T10:52:01.492Z,14.52
2023-02-16T10:54:29.841Z,14.59
2023-02-16T10:57:07.668Z,14.73
2023-02-16T10:59:42.086Z,14.78
2023-02-16T11:02:18.946Z,14.76
2023-02-16T11:04:48.563Z,14.72
2023-02-16T11:07:17.820Z,14.71
2023-02-16T11:09:47.151Z,14.87
2023-02-16T11:12:35.961Z,14.99
2023-02-16T11:15:05.599Z,14.99
2023-02-16T11:17:33.336Z,15.01
2023-02-16T11:20:05.671Z,15.05
2023-02-16T11:22:37.540Z,15.12
2023-02-16T11:25:19.959Z,15.22
2023-02-16T11:27:57.884Z,15.28
2023-02-16T11:30:44.696Z,15.26
2023-02-16T11:33:26.977Z,15.16
2023-02-16T11:35:54.060Z,15.09
2023-02-16T11:38:31.523Z,14.98
2023-02-16T11:40:59.887Z,15.05
2023-02-16T11:43:28.488Z,15.10
2023-02-16T11:46:04.652Z,15.24
2023-02-16T11:48:33.129Z,15.36
2023-02-16T11:51:03.010Z,15.50
2023-02-16T11:53:33.126Z,15.53
2023-02-16T11:56:23.970Z,15.46
2023-02-16T11:59:17.068Z,15.56
2023-02-16T12:02:11.684Z,15.48
2023-02-16T12:04:41.286Z,15.63
2023-02-16T12:07:38.566Z,15.63
2023-02-16T12:10:21.586Z,15.62
2023-02-16T12:13:03.158Z,15.82
2023-02-16T12:15:40.300Z,15.90
2023-02-16T12:18:13.047Z,16.05
2023-02-16T12:20:55.072Z,16.15
2023-02-16T12:23:31.617Z,16.36
2023-02-16T12:26:15.007Z,16.56
2023-02-16T12:28:57.945Z,16.73
2023-02-16T12:31:39.849Z,16.72
2023-02-16T12:34:21.800Z,16.73
2023-02-16T12:36:58.648Z,17.07
2023-02-16T12:39:34.131Z,17.51
2023-02-16T12:42:19.408Z,17.82
2023-02-16T12:44:50.742Z,17.98
2023-02-16T12:47:24.528Z,18.08
2023-02-16T12:49:54.413Z,18.15
2023-02-16T12:52:44.788Z,17.72
2023-02-16T12:55:22.104Z,17.70
2023-02-16T12:57:56.126Z,17.61
2023-02-16T13:00:34.995Z,17.77
2023-02-16T13:03:16.724Z,17.92
2023-02-16T13:05:44.798Z,18.13
2023-02-16T13:08:25.720Z,18.41
2023-02-16T13:10:57.554Z,18.44
2023-02-16T13:13:27.348Z,18.68
2023-02-16T13:16:09.553Z,18.92
2023-02-16T13:18:42.745Z,19.07
2023-02-16T13:21:15.458Z,19.29
2023-02-16T13:24:10.741Z,19.65
2023-02-16T13:26:46.438Z,19.86
2023-02-16T13:29:39.080Z,19.82
2023-02-16T13:32:33.879Z,19.90
2023-02-16T13:35:12.904Z,19.87
2023-02-16T13:37:58.223Z,20.10
2023-02-16T13:40:31.087Z,19.91
2023-02-16T13:43:12.507Z,19.80
2023-02-16T13:45:41.874Z,19.57
2023-02-16T13:48:29.710Z,19.31
2023-02-16T13:51:01.245Z,18.85
2023-02-16T13:53:37.750Z,19.09
2023-02-16T13:56:12.699Z,19.00
2023-02-16T13:58:40.882Z,18.80
2023-02-16T14:01:32.443Z,18.50
2023-02-16T14:04:01.236Z,18.25
2023-02-16T14:06:29.367Z,17.96
2023-02-16T14:09:14.056Z,17.60
2023-02-16T14:12:02.258Z,17.37
2023-02-16T14:14:46.365Z,17.11
2023-02-16T14:17:19.170Z,16.89
2023-02-16T14:20:03.626Z,16.71
2023-02-16T14:22:45.427Z,16.64
2023-02-16T14:25:24.159Z,16.51
2023-02-16T14:27:55.292Z,16.45
2023-02-16T14:30:35.509Z,16.29
2023-02-16T14:33:17.448Z,16.17
2023-02-16T14:35:48.339Z,16.06
2023-02-16T14:38:30.581Z,15.99
2023-02-16T14:40:58.638Z,15.90
2023-02-16T14:43:35.310Z,15.79
2023-02-16T14:46:20.978Z,15.68
2023-02-16T14:49:03.065Z,15.64
2023-02-16T14:52:00.733Z,15.55
2023-02-16T14:54:46.267Z,15.42
2023-02-16T14:57:16.652Z,15.29
2023-02-16T14:59:53.192Z,15.18
2023-02-16T15:02:40.035Z,15.09
2023-02-16T15:05:24.211Z,15.05
2023-02-16T15:08:05.567Z,14.96
2023-02-16T15:10:32.204Z,14.83
2023-02-16T15:12:59.156Z,14.82
2023-02-16T15:15:35.156Z,14.82
2023-02-16T15:18:01.798Z,14.75
2023-02-16T15:20:37.009Z,14.75
2023-02-16T15:23:07.905Z,14.70
2023-02-16T15:25:39.220Z,14.66
2023-02-16T15:28:11.743Z,14.61
2023-02-16T15:30:46.032Z,14.55
2023-02-16T15:33:23.066Z,14.51
2023-02-16T15:35:55.355Z,14.44
2023-02-16T15:38:25.273Z,14.38
2023-02-16T15:40:54.048Z,14.30
2023-02-16T15:43:35.815Z,14.28
2023-02-16T15:46:04.604Z,14.19
2023-02-16T15:48:37.650Z,14.15
2023-02-16T15:51:11.457Z,14.08
2023-02-16T15:53:45.952Z,14.01
2023-02-16T15:56:34.056Z,13.94
2023-02-16T15:59:03.506Z,13.88
2023-02-16T16:01:35.542Z,13.82
2023-02-16T16:04:05.701Z,13.77
2023-02-16T16:06:37.706Z,13.70
2023-02-16T16:09:08.288Z,13.63
2023-02-16T16:11:36.441Z,13.59
2023-02-16T16:14:04.790Z,13.52
2023-02-16T16:16:32.393Z,13.44
2023-02-16T16:19:08.687Z,13.38
2023-02-16T16:21:39.143Z,13.31
2023-02-16T16:24:07.969Z,13.28
2023-02-16T16:26:50.975Z,13.23
2023-02-16T16:29:32.146Z,13.20
2023-02-16T16:31:58.807Z,13.10
2023-02-16T16:34:39.505Z,13.01
2023-02-16T16:37:27.779Z,12.98
2023-02-16T16:40:02.126Z,12.95
2023-02-16T16:42:28.670Z,12.90
2023-02-16T16:45:01.626Z,12.88
2023-02-16T16:47:39.435Z,12.87
2023-02-16T16:50:14.417Z,12.80
2023-02-16T16:52:43.731Z,12.74
2023-02-16T16:55:19.314Z,12.69
2023-02-16T16:57:46.604Z,12.64
2023-02-16T17:00:14.825Z,12.59
2023-02-16T17:02:41.475Z,12.55
2023-02-16T17:05:08.369Z,12.49
2023-02-16T17:07:34.982Z,12.38
2023-02-16T17:10:01.654Z,12.28
2023-02-16T17:12:28.480Z,12.27
2023-02-16T17:14:55.614Z,12.31
2023-02-16T17:17:22.165Z,12.28
2023-02-16T17:19:48.820Z,12.20
2023-02-16T17:22:17.661Z,12.22
2023-02-16T17:24:44.672Z,12.21
2023-02-16T17:27:11.425Z,12.20
2023-02-16T17:29:38.069Z,12.18
2023-02-16T17:32:05.440Z,12.17
2023-02-16T17:34:31.998Z,12.15
2023-02-16T17:37:00.167Z,12.08
2023-02-16T17:39:26.812Z,12.04
2023-02-16T17:41:53.316Z,12.08
2023-02-16T17:44:20.848Z,11.98
2023-02-16T17:46:47.502Z,12.01
2023-02-16T17:49:14.573Z,12.01
2023-02-16T17:51:41.361Z,11.98
2023-02-16T17:54:10.971Z,11.92
2023-02-16T17:56:41.704Z,11.93
2023-02-16T17:59:10.524Z,11.89
2023-02-16T18:01:37.689Z,11.86
2023-02-16T18:04:04.360Z,11.86
2023-02-16T18:06:30.888Z,11.84
2023-02-16T18:08:57.581Z,11.85
2023-02-16T18:11:24.245Z,11.85
2023-02-16T18:13:50.873Z,11.84
2023-02-16T18:16:19.150Z,11.81
2023-02-16T18:18:45.908Z,11.79
2023-02-16T18:21:12.508Z,11.76
2023-02-16T18:23:39.389Z,11.74
2023-02-16T18:26:07.131Z,11.72
2023-02-16T18:28:34.361Z,11.68
2023-02-16T18:31:01.180Z,11.65
2023-02-16T18:33:28.007Z,11.62
2023-02-16T18:35:57.465Z,11.65
2023-02-16T18:38:25.215Z,11.61
2023-02-16T18:40:53.299Z,11.60
2023-02-16T18:43:20.128Z,11.56
2023-02-16T18:45:46.705Z,11.57
2023-02-16T18:48:13.483Z,11.55
2023-02-16T18:50:39.988Z,11.50
2023-02-16T18:53:07.131Z,11.50
2023-02-16T18:55:33.949Z,11.49
2023-02-16T18:58:01.595Z,11.46
2023-02-16T19:00:28.192Z,11.46
2023-02-16T19:02:55.371Z,11.45
2023-02-16T19:05:21.992Z,11.44
2023-02-16T19:07:48.548Z,11.43
2023-02-16T19:10:15.599Z,11.41
2023-02-16T19:12:42.174Z,11.41
2023-02-16T19:15:09.129Z,11.40
2023-02-16T19:17:35.668Z,11.35
2023-02-16T19:20:02.161Z,11.35
2023-02-16T19:22:28.636Z,11.31
2023-02-16T19:24:55.236Z,11.23
2023-02-16T19:27:21.733Z,11.21
2023-02-16T19:29:48.277Z,11.20
2023-02-16T19:32:15.038Z,11.23
2023-02-16T19:34:41.530Z,11.26
2023-02-16T19:37:08.074Z,11.24
2023-02-16T19:39:35.002Z,11.28
2023-02-16T19:42:01.514Z,11.28
2023-02-16T19:44:28.073Z,11.27
2023-02-16T19:46:54.723Z,11.28
2023-02-16T19:49:21.267Z,11.25
2023-02-16T19:51:47.915Z,11.22
2023-02-16T19:54:14.976Z,11.27
2023-02-16T19:56:41.515Z,11.26
2023-02-16T19:59:08.315Z,11.25
2023-02-16T20:01:34.818Z,11.21
2023-02-16T20:04:02.777Z,11.20
2023-02-16T20:06:41.054Z,11.19
2023-02-16T20:09:07.950Z,11.21
2023-02-16T20:11:35.004Z,11.17
2023-02-16T20:14:02.023Z,11.18
2023-02-16T20:16:29.334Z,11.19
2023-02-16T20:18:57.278Z,11.22
2023-02-16T20:21:26.349Z,11.27
2023-02-16T20:23:55.962Z,11.21
2023-02-16T20:26:25.667Z,11.25
2023-02-16T20:28:52.629Z,11.20
2023-02-16T20:31:28.934Z,11.23
2023-02-16T20:33:55.814Z,11.23
2023-02-16T20:36:22.893Z,11.23
2023-02-16T20:38:50.600Z,11.21
2023-02-16T20:41:18.422Z,11.08
2023-02-16T20:43:45.361Z,11.11
2023-02-16T20:46:13.414Z,11.15
2023-02-16T20:48:40.300Z,11.11
2023-02-16T20:51:08.046Z,11.05
2023-02-16T20:53:35.259Z,11.01
2023-02-16T20:56:04.983Z,11.06
2023-02-16T20:58:32.096Z,10.85
2023-02-16T21:00:58.655Z,10.91
2023-02-16T21:03:26.102Z,10.92
2023-02-16T21:05:53.389Z,10.92
2023-02-16T21:08:20.402Z,10.90
2023-02-16T21:10:46.991Z,10.88
2023-02-16T21:13:13.522Z,10.86
2023-02-16T21:15:40.453Z,10.81
2023-02-16T21:18:06.936Z,10.76
2023-02-16T21:20:33.440Z,10.73
2023-02-16T21:23:03.396Z,10.68
2023-02-16T21:25:30.545Z,10.66
2023-02-16T21:27:57.046Z,10.61
2023-02-16T21:30:23.569Z,10.62
2023-02-16T21:32:50.533Z,10.58
2023-02-16T21:35:18.120Z,10.58
2023-02-16T21:37:44.610Z,10.55
2023-02-16T21:40:30.441Z,10.53
2023-02-16T21:42:56.985Z,10.54
2023-02-16T21:45:23.493Z,10.53
2023-02-16T21:48:09.171Z,10.49
2023-02-16T21:50:38.955Z,10.48
2023-02-16T21:53:05.842Z,10.46
2023-02-16T21:55:50.986Z,10.42
2023-02-16T21:58:17.780Z,10.43
2023-02-16T22:00:44.834Z,10.46
2023-02-16T22:03:12.495Z,10.47
2023-02-16T22:05:39.018Z,10.44
2023-02-16T22:08:06.056Z,10.40
2023-02-16T22:10:34.214Z,10.40
2023-02-16T22:13:01.059Z,10.31
2023-02-16T22:15:27.641Z,10.37
2023-02-16T22:17:54.182Z,10.37
2023-02-16T22:20:21.148Z,10.36
2023-02-16T22:22:47.943Z,10.36
2023-02-16T22:25:14.427Z,10.36
2023-02-16T22:27:41.277Z,10.36
2023-02-16T22:30:08.598Z,10.35
2023-02-16T22:32:35.104Z,10.32
2023-02-16T22:35:01.796Z,10.29
2023-02-16T22:37:28.470Z,10.28
2023-02-16T22:39:55.201Z,10.27
2023-02-16T22:42:22.476Z,10.26
2023-02-16T22:44:49.333Z,10.26
2023-02-16T22:47:16.040Z,10.24
2023-02-16T22:49:42.713Z,10.24
2023-02-16T22:52:11.310Z,10.23
2023-02-16T22:54:37.901Z,10.23
2023-02-16T22:57:04.627Z,10.24
2023-02-16T22:59:31.491Z,10.25
2023-02-16T23:01:57.991Z,10.27
2023-02-16T23:04:27.672Z,10.25
2023-02-16T23:06:54.181Z,10.24
2023-02-16T23:09:22.067Z,10.25
2023-02-16T23:11:49.400Z,10.28
2023-02-16T23:14:16.665Z,10.25
2023-02-16T23:16:47.630Z,10.24
2023-02-16T23:19:16.766Z,10.23
2023-02-16T23:21:43.457Z,10.20
2023-02-16T23:24:15.580Z,10.13
2023-02-16T23:26:42.352Z,10.16
2023-02-16T23:29:09.418Z,10.14
2023-02-16T23:31:38.252Z,10.17
2023-02-16T23:34:05.843Z,10.19
2023-02-16T23:36:33.390Z,10.15
2023-02-16T23:39:10.518Z,10.15
2023-02-16T23:41:36.999Z,10.14
2023-02-16T23:44:04.673Z,10.12
2023-02-16T23:46:31.377Z,10.11
2023-02-16T23:48:58.325Z,10.11
2023-02-16T23:51:24.937Z,10.06
2023-02-16T23:53:51.572Z,10.09
2023-02-16T23:56:20.895Z,10.13
2023-02-16T23:58:47.625Z,10.11
